Time;durP1;ratioP1;P1;durP2;ratioP2;P2;SDS_P1;SDS_P2;PMS_P1;PMS_P2;Temp;Humidity;BMP_temperature;BMP_pressure;BME280_temperature;BME280_humidity;BME280_pressure;Samples;Min_cycle;Max_cycle;Signal;HPM_P1;HPM_P2
2022/01/30 00:00:14;;;;;;;29.33;20.25;;;8.90;40.20;;;;;;4955085;28;20382;-66
2022/01/30 00:02:40;;;;;;;31.40;19.10;;;8.90;40.60;;;;;;4953962;28;20031;-65
2022/01/30 00:05:08;;;;;;;25.58;17.35;;;8.90;40.30;;;;;;4955262;29;20035;-64
2022/01/30 00:07:34;;;;;;;29.60;17.45;;;8.80;40.60;;;;;;4954066;28;20035;-69
2022/01/30 00:10:00;;;;;;;25.67;17.58;;;8.70;40.40;;;;;;4938361;29;20032;-64
2022/01/30 00:12:41;;;;;;;26.13;17.23;;;8.70;40.50;;;;;;4955680;29;20035;-63
2022/01/30 00:15:07;;;;;;;25.67;15.88;;;8.60;41.80;;;;;;4955294;29;20038;-67
2022/01/30 00:17:40;;;;;;;30.75;17.55;;;8.60;40.50;;;;;;4955542;29;20031;-65
2022/01/30 00:20:13;;;;;;;27.95;16.08;;;8.50;40.60;;;;;;4955664;28;20027;-65
2022/01/30 00:23:11;;;;;;;36.97;17.23;;;8.50;42.60;;;;;;4955333;29;20028;-65
2022/01/30 00:25:34;;;;;;;25.15;15.70;;;8.50;41.10;;;;;;4957950;28;20047;-64
2022/01/30 00:28:06;;;;;;;27.40;16.30;;;8.50;41.40;;;;;;4956798;29;20063;-65
2022/01/30 00:30:34;;;;;;;31.58;16.15;;;8.50;41.10;;;;;;4954947;29;20126;-64
2022/01/30 00:33:04;;;;;;;27.35;16.00;;;8.50;41.20;;;;;;4954855;29;20031;-64
2022/01/30 00:35:33;;;;;;;25.10;15.88;;;8.50;40.90;;;;;;4955741;29;20086;-64
2022/01/30 00:37:59;;;;;;;27.48;16.10;;;8.50;41.00;;;;;;4955137;29;20106;-65
2022/01/30 00:40:25;;;;;;;30.58;16.40;;;8.50;41.00;;;;;;4955021;29;20066;-65
2022/01/30 00:42:51;;;;;;;31.33;17.27;;;8.50;41.10;;;;;;4955164;29;20062;-63
2022/01/30 00:45:17;;;;;;;27.77;15.60;;;8.50;41.50;;;;;;4954742;29;20253;-64
2022/01/30 00:47:42;;;;;;;27.08;14.90;;;8.50;41.30;;;;;;4955773;28;20381;-66
2022/01/30 00:50:10;;;;;;;28.00;16.33;;;8.40;41.40;;;;;;4955736;29;20054;-63
2022/01/30 00:52:36;;;;;;;24.33;15.93;;;8.40;41.20;;;;;;4955534;29;20557;-63
2022/01/30 00:55:03;;;;;;;26.50;15.13;;;8.40;41.80;;;;;;4955598;28;20065;-63
2022/01/30 00:57:29;;;;;;;25.17;15.80;;;8.40;41.90;;;;;;4955751;28;20074;-65
2022/01/30 00:59:55;;;;;;;26.75;16.33;;;8.40;41.90;;;;;;4955010;29;20047;-64
2022/01/30 01:02:20;;;;;;;26.92;17.70;;;8.30;41.70;;;;;;4955509;28;20275;-64
2022/01/30 01:04:46;;;;;;;30.05;19.38;;;8.30;42.40;;;;;;4955277;29;20050;-63
2022/01/30 01:07:19;;;;;;;28.00;18.13;;;8.20;42.50;;;;;;4955585;29;20098;-64
2022/01/30 01:10:02;;;;;;;34.38;19.55;;;8.10;43.60;;;;;;4955818;28;20119;-63
2022/01/30 01:25:58;;;;;;;34.95;21.85;;;7.90;45.10;;;;;;4959182;29;20046;-76
2022/01/30 01:28:26;;;;;;;41.70;24.25;;;7.90;46.00;;;;;;4958527;28;20043;-68
2022/01/30 01:30:54;;;;;;;35.75;23.33;;;7.90;45.50;;;;;;4958700;28;20034;-64
2022/01/30 01:33:21;;;;;;;34.80;22.60;;;7.80;46.00;;;;;;4958645;29;20476;-64
2022/01/30 01:35:47;;;;;;;37.58;22.98;;;7.80;45.80;;;;;;4958458;29;20385;-63
2022/01/30 01:38:14;;;;;;;35.92;23.13;;;7.80;46.10;;;;;;4958769;29;20031;-66
2022/01/30 01:40:42;;;;;;;36.30;23.35;;;7.70;46.40;;;;;;4958577;28;20031;-64
2022/01/30 01:43:11;;;;;;;41.42;22.80;;;7.70;46.20;;;;;;4958619;29;20054;-67
2022/01/30 01:45:40;;;;;;;32.10;23.02;;;7.70;46.40;;;;;;4958346;28;20047;-69
2022/01/30 01:48:14;;;;;;;37.25;21.98;;;7.70;46.60;;;;;;4958075;28;20031;-64
2022/01/30 01:50:44;;;;;;;34.10;23.35;;;7.70;46.70;;;;;;4958080;29;20472;-71
2022/01/30 01:53:13;;;;;;;36.15;23.25;;;7.70;46.70;;;;;;4958706;29;20031;-72
2022/01/30 01:55:41;;;;;;;37.75;21.25;;;7.60;47.40;;;;;;4939541;29;20036;-63
2022/01/30 01:58:10;;;;;;;35.33;22.67;;;7.60;47.30;;;;;;4940770;29;20027;-63
2022/01/30 02:00:36;;;;;;;35.92;22.38;;;7.60;47.10;;;;;;4941645;28;20082;-64
2022/01/30 02:03:02;;;;;;;36.25;21.95;;;7.50;46.90;;;;;;4958137;28;20050;-64
2022/01/30 02:05:31;;;;;;;35.72;22.60;;;7.50;47.10;;;;;;4957872;29;20118;-63
2022/01/30 02:26:55;;;;;;;31.42;19.70;;;7.60;47.30;;;;;;4941452;29;20038;-63
2022/01/30 02:29:21;;;;;;;30.25;19.55;;;7.60;47.20;;;;;;4956673;29;20114;-63
2022/01/30 02:31:47;;;;;;;29.15;18.10;;;7.60;47.20;;;;;;4956480;28;20540;-63
2022/01/30 02:34:13;;;;;;;28.55;18.15;;;7.50;47.30;;;;;;4956362;28;20106;-63
2022/01/30 02:36:49;;;;;;;27.23;18.10;;;7.40;47.10;;;;;;4956390;29;20035;-63
2022/01/30 02:39:15;;;;;;;29.23;17.80;;;7.30;47.10;;;;;;4956508;28;20103;-63
2022/01/30 02:41:41;;;;;;;29.63;17.83;;;7.30;47.20;;;;;;4956732;29;20046;-65
2022/01/30 02:46:38;;;;;;;32.15;18.40;;;7.20;46.70;;;;;;4956245;29;20067;-62
2022/01/30 02:49:24;;;;;;;24.55;17.35;;;7.10;46.60;;;;;;4956222;29;20031;-63
2022/01/30 02:54:20;;;;;;;27.50;16.90;;;7.00;46.90;;;;;;4956218;28;20361;-63
2022/01/30 02:56:46;;;;;;;25.45;18.05;;;7.00;47.10;;;;;;4955965;28;20109;-63
2022/01/30 02:59:13;;;;;;;27.90;17.75;;;7.00;46.80;;;;;;4955967;28;20138;-66
2022/01/30 03:01:39;;;;;;;27.83;17.45;;;7.00;46.90;;;;;;4956044;29;20028;-63
2022/01/30 03:04:05;;;;;;;28.70;16.27;;;7.10;46.90;;;;;;4956202;28;20481;-68
2022/01/30 03:06:31;;;;;;;25.23;17.45;;;7.00;47.20;;;;;;4956041;28;20051;-65
2022/01/30 03:08:57;;;;;;;27.88;18.35;;;7.10;47.20;;;;;;4956558;29;20032;-63
2022/01/30 03:11:24;;;;;;;29.55;18.55;;;7.10;47.40;;;;;;4956016;28;20027;-63
2022/01/30 03:13:50;;;;;;;34.33;19.60;;;7.00;47.40;;;;;;4955919;28;20078;-63
2022/01/30 03:16:15;;;;;;;32.30;19.50;;;6.90;48.20;;;;;;4955908;29;20031;-63
2022/01/30 03:18:43;;;;;;;29.95;19.25;;;6.90;48.30;;;;;;4938510;29;20511;-64
2022/01/30 03:21:09;;;;;;;29.35;18.50;;;6.90;48.30;;;;;;4955571;29;20093;-63
2022/01/30 03:23:38;;;;;;;31.33;19.10;;;6.90;48.80;;;;;;4955640;28;20031;-63
2022/01/30 03:26:05;;;;;;;29.73;19.45;;;6.90;48.60;;;;;;4955450;28;20050;-64
2022/01/30 03:28:32;;;;;;;30.27;18.92;;;6.90;48.70;;;;;;4955658;29;20031;-63
2022/01/30 03:31:06;;;;;;;30.60;19.73;;;7.00;49.00;;;;;;4955504;29;20417;-65
2022/01/30 03:33:31;;;;;;;29.88;19.45;;;6.90;49.00;;;;;;4955339;28;20062;-63
2022/01/30 03:35:57;;;;;;;31.35;19.33;;;6.90;49.20;;;;;;4955506;28;20027;-63
2022/01/30 03:38:24;;;;;;;31.38;20.15;;;6.90;49.10;;;;;;4955021;28;20027;-67
2022/01/30 03:40:50;;;;;;;36.88;21.88;;;6.80;49.10;;;;;;4955422;28;20047;-63
2022/01/30 03:43:16;;;;;;;34.85;21.83;;;6.80;49.60;;;;;;4955237;28;20548;-65
2022/01/30 03:45:42;;;;;;;36.75;22.23;;;6.80;50.00;;;;;;4954883;29;20456;-63
2022/01/30 03:48:08;;;;;;;33.83;21.30;;;6.80;49.90;;;;;;4955068;28;20045;-64
2022/01/30 03:50:36;;;;;;;33.20;21.48;;;6.70;49.70;;;;;;4955066;29;20027;-61
2022/01/30 03:53:02;;;;;;;32.08;19.90;;;6.70;50.20;;;;;;4954846;28;20031;-63
2022/01/30 03:55:28;;;;;;;30.60;19.13;;;6.70;50.00;;;;;;4938037;29;20039;-69
2022/01/30 03:57:53;;;;;;;27.83;18.55;;;6.50;50.50;;;;;;4955172;28;20027;-64
2022/01/30 04:00:19;;;;;;;26.52;17.75;;;6.50;50.70;;;;;;4955119;29;20358;-64
2022/01/30 04:02:46;;;;;;;26.85;17.55;;;6.50;51.40;;;;;;4954957;28;20098;-62
2022/01/30 04:05:12;;;;;;;29.08;18.05;;;6.50;50.80;;;;;;4954914;29;20046;-64
2022/01/30 04:07:38;;;;;;;28.15;17.88;;;6.50;50.80;;;;;;4954954;28;20031;-63
2022/01/30 04:10:05;;;;;;;27.27;17.27;;;6.60;51.00;;;;;;4954960;28;20073;-64
2022/01/30 04:12:32;;;;;;;29.23;18.45;;;6.60;51.10;;;;;;4955349;28;20031;-65
2022/01/30 04:14:58;;;;;;;28.33;18.55;;;6.50;51.00;;;;;;4954776;29;20027;-62
2022/01/30 04:17:24;;;;;;;29.40;17.88;;;6.50;51.00;;;;;;4954793;28;20373;-65
2022/01/30 04:19:50;;;;;;;29.85;17.88;;;6.50;51.00;;;;;;4954883;28;20034;-63
2022/01/30 04:22:16;;;;;;;26.40;17.58;;;6.60;51.20;;;;;;4954704;28;20023;-63
2022/01/30 04:24:44;;;;;;;25.70;17.52;;;6.60;51.10;;;;;;4954595;28;20034;-63
2022/01/30 04:27:09;;;;;;;27.77;17.13;;;6.60;51.50;;;;;;4954738;28;20039;-64
2022/01/30 04:29:36;;;;;;;26.67;17.27;;;6.50;51.00;;;;;;4954841;29;20050;-63
2022/01/30 04:32:03;;;;;;;29.60;18.00;;;6.60;51.40;;;;;;4954907;29;20035;-66
2022/01/30 04:34:29;;;;;;;25.00;17.60;;;6.50;51.40;;;;;;4955023;28;20384;-63
2022/01/30 04:53:13;;;;;;;31.48;20.08;;;6.10;51.70;;;;;;4958811;28;20034;-62
2022/01/30 04:58:34;;;;;;;31.90;20.98;;;6.10;51.80;;;;;;4937904;28;20038;-66
2022/01/30 05:01:16;;;;;;;34.47;22.80;;;6.00;52.60;;;;;;4958297;28;20050;-64
2022/01/30 05:04:02;;;;;;;32.97;20.85;;;6.00;52.80;;;;;;4958131;28;20050;-69
2022/01/30 05:06:54;;;;;;;35.83;21.90;;;6.00;53.20;;;;;;4959501;29;20047;-63
2022/01/30 05:09:16;;;;;;;28.08;20.42;;;6.00;52.50;;;;;;4958848;29;20042;-62
2022/01/30 05:11:42;;;;;;;36.40;21.25;;;6.00;51.90;;;;;;4958195;28;20031;-63
2022/01/30 05:14:08;;;;;;;30.30;21.58;;;6.00;52.10;;;;;;4958123;28;20026;-63
2022/01/30 05:16:35;;;;;;;35.25;20.95;;;6.00;52.10;;;;;;4958112;29;20023;-66
2022/01/30 05:19:01;;;;;;;32.33;21.85;;;6.10;51.90;;;;;;4958077;29;20038;-66
2022/01/30 05:21:27;;;;;;;31.65;21.08;;;6.00;52.40;;;;;;4957949;29;20038;-64
2022/01/30 05:23:53;;;;;;;31.40;20.98;;;6.10;52.70;;;;;;4957780;28;20365;-62
2022/01/30 05:26:22;;;;;;;36.72;22.88;;;6.00;52.60;;;;;;4957173;28;20044;-66
2022/01/30 05:28:49;;;;;;;28.67;20.60;;;6.10;52.10;;;;;;4957822;29;20098;-63
2022/01/30 05:31:14;;;;;;;30.17;20.30;;;6.20;52.80;;;;;;4957976;28;20035;-62
2022/01/30 05:33:40;;;;;;;31.63;20.58;;;6.20;51.80;;;;;;4957512;28;20078;-66
2022/01/30 05:36:07;;;;;;;30.48;21.05;;;6.20;51.90;;;;;;4957735;28;20388;-63
2022/01/30 05:38:35;;;;;;;30.83;20.38;;;6.30;52.10;;;;;;4957674;29;20031;-67
2022/01/30 05:41:01;;;;;;;33.95;21.35;;;6.30;51.80;;;;;;4957703;28;20106;-63
2022/01/30 05:43:30;;;;;;;30.15;20.88;;;6.20;51.80;;;;;;4957487;28;20023;-65
2022/01/30 05:46:16;;;;;;;30.65;21.85;;;6.20;52.20;;;;;;4957692;28;20077;-65
2022/01/30 05:48:43;;;;;;;29.15;21.90;;;6.20;52.90;;;;;;4957681;28;20039;-64
2022/01/30 05:51:09;;;;;;;34.28;22.80;;;6.20;53.00;;;;;;4957450;28;20042;-64
2022/01/30 05:53:35;;;;;;;29.90;21.15;;;6.20;52.50;;;;;;4957286;28;20094;-62
2022/01/30 05:56:01;;;;;;;30.98;20.88;;;6.20;52.20;;;;;;4957565;28;20039;-64
2022/01/30 05:58:26;;;;;;;28.02;19.58;;;6.20;52.60;;;;;;4959056;29;20035;-63
2022/01/30 06:00:53;;;;;;;28.42;19.75;;;6.20;52.60;;;;;;4958209;28;20066;-63
2022/01/30 06:03:19;;;;;;;28.58;20.02;;;6.20;53.30;;;;;;4957376;28;20063;-63
2022/01/30 06:05:46;;;;;;;27.27;19.55;;;6.10;52.60;;;;;;4957261;29;20090;-64
2022/01/30 06:08:27;;;;;;;28.40;19.63;;;6.00;52.80;;;;;;4957156;29;20033;-64
2022/01/30 06:10:53;;;;;;;26.48;18.55;;;5.90;53.20;;;;;;4957103;29;20042;-63
2022/01/30 06:13:20;;;;;;;30.52;18.67;;;5.80;53.20;;;;;;4956917;28;20461;-65
2022/01/30 06:15:46;;;;;;;28.25;18.52;;;5.70;53.10;;;;;;4939705;29;20027;-63
2022/01/30 06:18:12;;;;;;;28.85;18.77;;;5.70;53.60;;;;;;4956963;29;20035;-63
2022/01/30 06:20:38;;;;;;;28.00;17.73;;;5.70;53.80;;;;;;4957026;29;20035;-64
2022/01/30 06:23:04;;;;;;;27.42;17.40;;;5.60;53.40;;;;;;4956728;28;20027;-68
2022/01/30 06:25:29;;;;;;;24.00;15.90;;;5.60;52.90;;;;;;4956831;29;20063;-64
2022/01/30 06:27:55;;;;;;;24.45;17.15;;;5.70;53.10;;;;;;4956963;29;20019;-63
2022/01/30 06:30:21;;;;;;;28.80;17.88;;;5.70;53.00;;;;;;4956964;29;20155;-62
2022/01/30 06:32:53;;;;;;;23.45;15.95;;;5.70;52.60;;;;;;4956710;28;20079;-62
2022/01/30 06:35:18;;;;;;;24.23;16.52;;;5.80;52.70;;;;;;4956946;29;20506;-63
2022/01/30 06:37:46;;;;;;;22.48;15.98;;;5.80;52.70;;;;;;4956643;28;20039;-63
2022/01/30 06:40:13;;;;;;;26.48;16.70;;;5.80;53.30;;;;;;4956629;29;20035;-64
2022/01/30 06:42:39;;;;;;;26.42;18.00;;;5.80;53.20;;;;;;4956602;28;20101;-70
2022/01/30 06:45:06;;;;;;;26.35;16.90;;;5.80;52.40;;;;;;4956394;29;20082;-67
2022/01/30 06:47:31;;;;;;;25.98;16.25;;;5.80;52.60;;;;;;4956368;29;20023;-64
2022/01/30 06:49:57;;;;;;;25.00;17.05;;;5.90;52.40;;;;;;4956246;29;20023;-67
2022/01/30 06:52:23;;;;;;;22.80;16.25;;;5.80;52.60;;;;;;4938969;28;20027;-66
2022/01/30 06:54:48;;;;;;;23.55;16.50;;;5.90;52.60;;;;;;4956430;29;20023;-67
2022/01/30 06:57:14;;;;;;;24.00;16.23;;;5.90;52.70;;;;;;4956176;29;20417;-64
2022/01/30 06:59:40;;;;;;;24.70;16.70;;;5.90;52.80;;;;;;4955777;29;20051;-68
2022/01/30 07:02:07;;;;;;;25.77;17.10;;;6.00;52.80;;;;;;4955826;29;20103;-69
2022/01/30 07:04:33;;;;;;;25.42;16.58;;;6.10;52.80;;;;;;4955904;28;20031;-66
2022/01/30 07:07:03;;;;;;;29.13;16.23;;;6.20;53.00;;;;;;4955939;28;20023;-71
2022/01/30 07:09:31;;;;;;;22.80;16.15;;;6.40;53.10;;;;;;4956003;28;20051;-67
2022/01/30 07:11:57;;;;;;;25.08;16.02;;;6.50;52.20;;;;;;4955334;28;20053;-69
2022/01/30 07:14:22;;;;;;;26.27;16.90;;;6.70;52.10;;;;;;4955587;28;20031;-66
2022/01/30 07:16:48;;;;;;;22.23;16.75;;;6.80;52.00;;;;;;4955889;28;20445;-65
2022/01/30 07:19:14;;;;;;;25.55;16.70;;;7.00;52.10;;;;;;4955833;28;20028;-68
2022/01/30 07:21:40;;;;;;;30.63;16.48;;;7.10;51.80;;;;;;4955945;28;20079;-69
2022/01/30 07:24:06;;;;;;;25.05;17.10;;;7.20;51.70;;;;;;4955289;28;20488;-63
2022/01/30 07:26:32;;;;;;;24.85;16.45;;;7.20;51.40;;;;;;4955617;28;20035;-65
2022/01/30 07:29:00;;;;;;;24.35;16.63;;;7.30;51.30;;;;;;4955606;29;20034;-74
2022/01/30 07:31:26;;;;;;;27.98;16.65;;;7.30;51.30;;;;;;4955769;28;20034;-64
2022/01/30 07:33:52;;;;;;;23.60;15.63;;;7.40;51.40;;;;;;4955062;28;20031;-69
2022/01/30 07:36:17;;;;;;;24.30;15.25;;;7.40;51.00;;;;;;4955089;29;20035;-68
2022/01/30 07:38:45;;;;;;;22.00;15.80;;;7.50;51.10;;;;;;4954867;29;20099;-64
2022/01/30 07:41:11;;;;;;;23.92;16.08;;;7.50;51.00;;;;;;4954599;29;20031;-65
2022/01/30 07:43:36;;;;;;;27.50;16.45;;;7.60;51.50;;;;;;4955135;28;20380;-70
2022/01/30 07:46:04;;;;;;;25.52;17.83;;;7.60;51.30;;;;;;4954169;29;20472;-68
2022/01/30 07:48:30;;;;;;;24.17;16.08;;;7.70;51.60;;;;;;4944429;29;20035;-68
2022/01/30 07:50:57;;;;;;;26.65;17.48;;;7.70;51.80;;;;;;4955797;29;20034;-63
2022/01/30 07:53:23;;;;;;;24.98;16.80;;;7.70;51.10;;;;;;4955758;28;20031;-66
2022/01/30 07:55:49;;;;;;;21.83;16.52;;;7.70;51.20;;;;;;4955369;29;20457;-66
2022/01/30 07:58:14;;;;;;;26.52;16.60;;;7.80;51.00;;;;;;4955273;28;20031;-65
2022/01/30 08:00:40;;;;;;;25.83;16.65;;;7.80;51.10;;;;;;4955052;29;20058;-65
2022/01/30 08:03:06;;;;;;;26.05;17.55;;;7.70;50.90;;;;;;4955280;28;20049;-69
2022/01/30 08:05:32;;;;;;;24.48;17.17;;;7.70;50.90;;;;;;4955529;28;20094;-66
2022/01/30 08:07:58;;;;;;;27.70;16.92;;;7.70;50.80;;;;;;4955129;29;20054;-64
2022/01/30 08:10:23;;;;;;;27.52;17.95;;;7.60;51.00;;;;;;4953609;28;20039;-70
2022/01/30 08:12:49;;;;;;;42.25;27.05;;;7.60;51.00;;;;;;4954647;28;20028;-72
2022/01/30 08:15:15;;;;;;;24.00;18.08;;;7.70;51.30;;;;;;4954729;28;20102;-72
2022/01/30 08:17:41;;;;;;;27.13;17.00;;;7.70;51.30;;;;;;4954949;28;20409;-72
2022/01/30 08:20:07;;;;;;;25.42;18.17;;;7.70;51.20;;;;;;4949366;29;20370;-74
2022/01/30 08:22:52;;;;;;;28.27;17.27;;;7.70;51.40;;;;;;4940301;29;20032;-70
2022/01/30 08:25:19;;;;;;;25.00;17.33;;;7.70;51.20;;;;;;4948192;28;20054;-68
2022/01/30 08:27:45;;;;;;;23.08;16.15;;;7.70;51.50;;;;;;4955571;28;20029;-73
2022/01/30 08:30:11;;;;;;;26.42;17.80;;;7.70;51.30;;;;;;4953064;28;20111;-69
2022/01/30 08:32:42;;;;;;;27.85;17.13;;;7.80;51.70;;;;;;4954581;28;20035;-69
2022/01/30 08:35:10;;;;;;;23.20;16.90;;;7.80;51.40;;;;;;4955595;29;20132;-66
2022/01/30 08:37:36;;;;;;;26.75;17.02;;;7.80;51.30;;;;;;4937272;29;20031;-65
2022/01/30 08:40:14;;;;;;;25.42;17.15;;;7.80;51.40;;;;;;4954428;29;20042;-66
2022/01/30 08:42:40;;;;;;;25.30;16.45;;;7.90;51.50;;;;;;4954442;29;20400;-64
2022/01/30 08:45:08;;;;;;;22.75;17.13;;;7.90;51.50;;;;;;4948472;29;20039;-66
2022/01/30 08:47:34;;;;;;;26.63;17.20;;;8.00;51.60;;;;;;4947615;28;20067;-64
2022/01/30 08:50:00;;;;;;;24.75;17.27;;;8.10;51.80;;;;;;4954144;29;20484;-66
2022/01/30 08:52:26;;;;;;;23.45;16.42;;;8.10;51.60;;;;;;4954391;29;20023;-67
2022/01/30 08:54:53;;;;;;;28.50;18.27;;;8.20;52.00;;;;;;4954246;29;20100;-65
2022/01/30 08:57:19;;;;;;;25.40;16.85;;;8.30;51.80;;;;;;4938271;28;20035;-66
2022/01/30 08:59:46;;;;;;;28.27;17.25;;;8.40;51.70;;;;;;4954190;29;20043;-67
2022/01/30 09:02:19;;;;;;;27.23;17.67;;;8.40;51.90;;;;;;4954534;28;20440;-64
2022/01/30 09:04:46;;;;;;;31.30;19.40;;;8.50;51.70;;;;;;4954229;28;20479;-64
2022/01/30 09:07:12;;;;;;;28.52;19.40;;;8.60;51.60;;;;;;4953882;29;20365;-68
2022/01/30 09:09:38;;;;;;;30.80;18.80;;;8.70;51.50;;;;;;4954062;29;20019;-65
2022/01/30 09:12:05;;;;;;;27.02;19.27;;;8.80;51.50;;;;;;4953471;29;20038;-64
2022/01/30 09:14:31;;;;;;;27.73;17.92;;;8.80;51.40;;;;;;4952101;28;20024;-64
2022/01/30 09:16:57;;;;;;;29.67;18.33;;;8.90;51.50;;;;;;4953536;29;20027;-65
2022/01/30 09:19:22;;;;;;;27.63;17.50;;;8.90;51.60;;;;;;4953914;28;20027;-64
2022/01/30 09:21:48;;;;;;;27.70;17.73;;;9.00;51.60;;;;;;4942454;29;20044;-64
2022/01/30 09:24:14;;;;;;;25.50;17.02;;;9.00;51.40;;;;;;4936557;28;20119;-64
2022/01/30 09:26:41;;;;;;;22.60;16.83;;;9.10;51.30;;;;;;4953730;29;20110;-65
2022/01/30 09:29:07;;;;;;;22.65;16.85;;;9.20;51.40;;;;;;4953666;28;20023;-65
2022/01/30 09:31:32;;;;;;;28.38;16.23;;;9.30;51.40;;;;;;4947679;29;20039;-65
2022/01/30 09:33:58;;;;;;;31.65;17.08;;;9.40;51.20;;;;;;4949087;28;20110;-66
2022/01/30 09:36:24;;;;;;;28.40;17.23;;;9.50;51.10;;;;;;4949567;29;20042;-66
2022/01/30 09:38:52;;;;;;;24.63;17.02;;;9.70;50.80;;;;;;4949994;29;20385;-64
2022/01/30 09:41:20;;;;;;;26.38;18.77;;;9.80;50.80;;;;;;4939569;29;20420;-64
2022/01/30 09:43:45;;;;;;;30.27;19.60;;;9.90;50.60;;;;;;4954176;28;20031;-64
2022/01/30 09:46:11;;;;;;;29.23;18.45;;;10.00;49.50;;;;;;4954257;29;20503;-66
2022/01/30 09:48:38;;;;;;;26.63;17.73;;;10.00;49.20;;;;;;4956483;29;20027;-65
2022/01/30 09:51:08;;;;;;;24.95;17.10;;;10.10;49.10;;;;;;4955719;29;20595;-65
2022/01/30 09:53:39;;;;;;;22.65;17.05;;;10.20;49.30;;;;;;4956948;28;20024;-66
2022/01/30 09:56:06;;;;;;;24.48;16.48;;;10.20;48.90;;;;;;4957069;29;20102;-66
2022/01/30 09:58:32;;;;;;;22.45;16.38;;;10.30;48.60;;;;;;4956931;29;20403;-66
2022/01/30 10:00:58;;;;;;;25.23;16.55;;;10.40;48.90;;;;;;4957009;28;20409;-66
2022/01/30 10:03:28;;;;;;;24.27;16.77;;;10.40;48.60;;;;;;4957221;28;20035;-67
2022/01/30 10:06:01;;;;;;;22.27;16.10;;;10.50;48.50;;;;;;4956784;28;20039;-66
2022/01/30 10:08:40;;;;;;;24.23;16.20;;;10.60;48.70;;;;;;4956882;28;20035;-65
2022/01/30 10:11:26;;;;;;;22.10;15.30;;;10.60;48.50;;;;;;4957056;28;20027;-66
2022/01/30 10:14:11;;;;;;;24.58;15.57;;;10.60;48.60;;;;;;4956659;28;20042;-65
2022/01/30 10:16:46;;;;;;;20.70;15.30;;;10.60;48.70;;;;;;4956924;29;20115;-67
2022/01/30 10:19:20;;;;;;;19.42;13.35;;;10.70;48.70;;;;;;4956293;28;20090;-67
2022/01/30 10:21:49;;;;;;;21.17;13.77;;;10.70;48.50;;;;;;4956896;29;20093;-69
2022/01/30 10:24:26;;;;;;;21.23;13.85;;;10.80;48.70;;;;;;4939435;29;20392;-66
2022/01/30 10:26:57;;;;;;;20.30;13.57;;;10.80;48.80;;;;;;4956561;28;20416;-65
2022/01/30 10:29:27;;;;;;;20.30;13.38;;;10.80;48.90;;;;;;4956347;29;20534;-67
2022/01/30 10:32:08;;;;;;;16.75;12.07;;;10.90;49.20;;;;;;4956531;29;20040;-64
2022/01/30 10:34:37;;;;;;;22.67;12.80;;;11.00;49.00;;;;;;4955392;28;20102;-69
2022/01/30 10:37:16;;;;;;;21.83;13.88;;;11.10;49.00;;;;;;4955156;29;20090;-67
2022/01/30 10:39:53;;;;;;;21.58;13.02;;;11.20;49.20;;;;;;4955101;28;20035;-65
2022/01/30 10:42:33;;;;;;;17.65;12.85;;;11.30;49.00;;;;;;4956201;29;20508;-66
2022/01/30 10:44:59;;;;;;;21.23;13.73;;;11.30;48.80;;;;;;4956323;29;20035;-65
2022/01/30 10:47:25;;;;;;;18.92;12.57;;;11.40;49.00;;;;;;4955129;28;20454;-66
2022/01/30 10:49:53;;;;;;;22.92;14.27;;;11.50;49.70;;;;;;4956269;29;20047;-66
2022/01/30 10:52:19;;;;;;;19.38;12.75;;;11.50;48.80;;;;;;4954622;29;20027;-66
2022/01/30 10:54:50;;;;;;;19.45;12.75;;;11.60;48.80;;;;;;4954938;28;20395;-68
2022/01/30 10:57:17;;;;;;;20.13;12.60;;;11.70;48.90;;;;;;4956144;29;20531;-66
2022/01/30 10:59:56;;;;;;;19.30;12.70;;;11.70;48.30;;;;;;4955747;28;20059;-66
2022/01/30 11:02:26;;;;;;;17.83;13.30;;;11.70;48.60;;;;;;4955990;28;20031;-67
2022/01/30 11:05:06;;;;;;;21.45;13.75;;;11.70;48.80;;;;;;4956050;29;20050;-67
2022/01/30 11:07:42;;;;;;;26.20;14.45;;;11.80;48.70;;;;;;4956371;29;20476;-69
2022/01/30 11:12:56;;;;;;;23.90;14.13;;;12.00;48.90;;;;;;4955819;28;20485;-67
2022/01/30 11:18:05;;;;;;;20.83;14.25;;;12.10;49.10;;;;;;4956412;28;20047;-79
2022/01/30 11:20:33;;;;;;;23.45;14.32;;;12.20;48.80;;;;;;4956130;28;20038;-76
2022/01/30 11:23:01;;;;;;;23.30;14.52;;;12.30;48.40;;;;;;4956175;28;20572;-81
2022/01/30 11:25:35;;;;;;;22.13;15.75;;;12.40;48.70;;;;;;4956102;28;20477;-81
2022/01/30 11:28:06;;;;;;;24.17;13.93;;;12.40;49.40;;;;;;4956199;28;20038;-79
2022/01/30 11:30:34;;;;;;;19.08;13.40;;;12.50;48.90;;;;;;4956177;28;20040;-81
2022/01/30 11:33:00;;;;;;;21.52;13.73;;;12.50;49.00;;;;;;4938823;29;20396;-79
2022/01/30 11:35:27;;;;;;;23.15;14.15;;;12.70;49.10;;;;;;4955974;28;20023;-74
2022/01/30 11:37:54;;;;;;;20.75;13.68;;;12.70;48.60;;;;;;4955877;29;20039;-70
2022/01/30 11:40:22;;;;;;;19.85;13.95;;;12.70;48.70;;;;;;4955605;29;20034;-68
2022/01/30 11:42:53;;;;;;;19.70;13.30;;;12.80;49.60;;;;;;4955282;28;20074;-71
2022/01/30 11:45:32;;;;;;;17.65;12.50;;;12.80;48.70;;;;;;4955741;29;20046;-67
2022/01/30 11:48:04;;;;;;;22.25;12.63;;;12.80;48.70;;;;;;4954764;28;20042;-66
2022/01/30 11:50:34;;;;;;;22.92;13.65;;;12.90;48.80;;;;;;4955655;29;20023;-69
2022/01/30 11:53:10;;;;;;;19.63;12.60;;;13.00;49.20;;;;;;4955434;28;20035;-66
2022/01/30 11:55:57;;;;;;;20.58;12.95;;;13.10;50.00;;;;;;4955555;29;20200;-69
2022/01/30 11:58:49;;;;;;;19.40;13.63;;;13.20;50.00;;;;;;4954301;28;20038;-66
2022/01/30 12:01:37;;;;;;;21.42;13.05;;;13.30;50.00;;;;;;4954937;29;20436;-67
2022/01/30 12:04:09;;;;;;;24.35;13.65;;;13.30;50.00;;;;;;4954770;28;20090;-68
2022/01/30 12:06:47;;;;;;;21.08;13.20;;;13.30;50.00;;;;;;4937632;29;20425;-68
2022/01/30 12:09:27;;;;;;;21.90;14.07;;;13.40;48.90;;;;;;4954645;28;20031;-65
2022/01/30 12:11:56;;;;;;;20.73;13.68;;;13.40;49.00;;;;;;4955098;28;20444;-65
2022/01/30 12:14:22;;;;;;;20.63;13.23;;;13.50;48.90;;;;;;4954213;28;20126;-65
2022/01/30 12:17:10;;;;;;;24.25;13.50;;;13.50;49.20;;;;;;4955145;29;20110;-68
2022/01/30 12:19:39;;;;;;;25.33;14.52;;;13.60;50.40;;;;;;4955127;29;20030;-66
2022/01/30 12:22:40;;;;;;;19.75;14.45;;;13.60;50.00;;;;;;4954896;29;20027;-66
2022/01/30 12:25:30;;;;;;;23.30;13.25;;;13.60;50.30;;;;;;4933535;29;20070;-65
2022/01/30 12:28:04;;;;;;;21.80;13.43;;;13.70;50.40;;;;;;4954539;29;20034;-71
2022/01/30 12:30:43;;;;;;;20.58;12.75;;;13.70;50.40;;;;;;4953333;28;20118;-66
2022/01/30 12:33:38;;;;;;;17.17;12.15;;;13.70;50.20;;;;;;4954804;28;20067;-66
2022/01/30 12:36:11;;;;;;;16.50;11.45;;;13.70;49.10;;;;;;4954644;28;20019;-70
2022/01/30 12:38:38;;;;;;;19.85;13.25;;;13.80;49.40;;;;;;4954456;29;20400;-69
2022/01/30 12:41:20;;;;;;;20.55;12.98;;;13.70;49.60;;;;;;4936474;29;20033;-66
2022/01/30 12:43:54;;;;;;;22.58;13.65;;;13.70;50.80;;;;;;4944316;28;20039;-69
2022/01/30 12:46:23;;;;;;;18.33;13.38;;;13.70;49.80;;;;;;4953328;28;20043;-71
2022/01/30 12:49:04;;;;;;;19.90;12.82;;;13.70;50.20;;;;;;4954932;28;20354;-76
2022/01/30 12:51:30;;;;;;;26.05;17.55;;;13.60;50.60;;;;;;4954635;29;20464;-67
2022/01/30 12:53:58;;;;;;;28.13;15.60;;;13.60;50.70;;;;;;4953551;28;20472;-67
2022/01/30 12:56:25;;;;;;;23.15;14.93;;;13.60;51.60;;;;;;4954133;29;20507;-70
2022/01/30 12:58:59;;;;;;;22.33;15.38;;;13.60;52.00;;;;;;4953783;28;20047;-66
2022/01/30 13:01:27;;;;;;;21.85;13.30;;;13.60;52.20;;;;;;4954238;28;20032;-69
2022/01/30 13:04:03;;;;;;;26.27;14.25;;;13.50;52.20;;;;;;4954108;28;20055;-68
2022/01/30 13:06:36;;;;;;;18.75;13.55;;;13.40;52.60;;;;;;4954890;29;20031;-71
2022/01/30 13:09:04;;;;;;;19.55;13.07;;;13.30;52.70;;;;;;4954535;28;20035;-75
2022/01/30 13:11:30;;;;;;;17.80;12.50;;;13.30;52.90;;;;;;4956784;28;20090;-70
2022/01/30 13:14:06;;;;;;;18.30;12.40;;;13.30;53.10;;;;;;4958288;28;20019;-69
2022/01/30 13:16:54;;;;;;;25.00;13.02;;;13.30;53.20;;;;;;4957095;29;20031;-69
2022/01/30 13:19:37;;;;;;;17.92;12.20;;;13.20;53.10;;;;;;4957343;28;20065;-68
2022/01/30 13:22:05;;;;;;;;;;;13.30;53.50;;;;;;4941339;28;20114;-67
2022/01/30 13:24:31;;;;;;;21.40;12.25;;;13.30;53.30;;;;;;4958303;28;19906;-66
2022/01/30 13:27:01;;;;;;;17.85;12.85;;;13.20;53.60;;;;;;4958271;28;20404;-67
2022/01/30 13:29:30;;;;;;;19.80;13.32;;;13.20;53.40;;;;;;4957945;29;20031;-66
2022/01/30 13:31:57;;;;;;;18.08;12.20;;;13.20;53.70;;;;;;4957930;28;20031;-67
2022/01/30 13:34:22;;;;;;;22.15;12.32;;;13.20;54.00;;;;;;4955979;28;20413;-67
2022/01/30 13:36:54;;;;;;;21.30;12.95;;;13.20;54.00;;;;;;4944721;29;20027;-71
2022/01/30 13:39:50;;;;;;;18.80;12.32;;;13.20;54.10;;;;;;4957780;29;20046;-69
2022/01/30 13:45:06;;;;;;;19.20;12.13;;;13.20;54.20;;;;;;4957564;29;20039;-75
2022/01/30 13:47:33;;;;;;;16.17;10.45;;;13.20;54.40;;;;;;4957971;28;20046;-69